sensor_id;sensor_type;location;lat;lon;timestamp;P1;durP1;ratioP1;P2;durP2;ratioP2
53781;SDS011;39692;53.114;7.060;2022-10-30T00:02:06;18.90;;;12.88;;
53781;SDS011;39692;53.114;7.060;2022-10-30T00:04:32;18.10;;;12.15;;
53781;SDS011;39692;53.114;7.060;2022-10-30T00:06:57;20.27;;;11.43;;
53781;SDS011;39692;53.114;7.060;2022-10-30T00:09:23;22.52;;;12.05;;
53781;SDS011;39692;53.114;7.060;2022-10-30T00:11:48;17.42;;;12.20;;
53781;SDS011;39692;53.114;7.060;2022-10-30T00:14:14;17.48;;;11.98;;
53781;SDS011;39692;53.114;7.060;2022-10-30T00:16:40;18.98;;;11.18;;
53781;SDS011;39692;53.114;7.060;2022-10-30T00:19:06;18.80;;;11.38;;
53781;SDS011;39692;53.114;7.060;2022-10-30T00:21:32;23.33;;;11.63;;
53781;SDS011;39692;53.114;7.060;2022-10-30T00:23:57;19.50;;;10.68;;
53781;SDS011;39692;53.114;7.060;2022-10-30T00:26:23;21.90;;;12.55;;
53781;SDS011;39692;53.114;7.060;2022-10-30T00:28:53;17.63;;;11.25;;
53781;SDS011;39692;53.114;7.060;2022-10-30T00:31:20;13.73;;;8.68;;
53781;SDS011;39692;53.114;7.060;2022-10-30T00:33:49;20.65;;;11.02;;
53781;SDS011;39692;53.114;7.060;2022-10-30T00:36:16;20.17;;;11.10;;
53781;SDS011;39692;53.114;7.060;2022-10-30T00:38:41;21.23;;;11.93;;
53781;SDS011;39692;53.114;7.060;2022-10-30T00:41:12;20.17;;;11.10;;
53781;SDS011;39692;53.114;7.060;2022-10-30T00:43:42;18.48;;;11.32;;
53781;SDS011;39692;53.114;7.060;2022-10-30T00:46:28;19.88;;;8.85;;
53781;SDS011;39692;53.114;7.060;2022-10-30T00:49:03;15.45;;;9.80;;
53781;SDS011;39692;53.114;7.060;2022-10-30T00:51:34;19.95;;;9.20;;
53781;SDS011;39692;53.114;7.060;2022-10-30T00:54:03;16.65;;;10.27;;
53781;SDS011;39692;53.114;7.060;2022-10-30T00:56:30;21.52;;;9.25;;
53781;SDS011;39692;53.114;7.060;2022-10-30T00:58:59;19.38;;;12.35;;
53781;SDS011;39692;53.114;7.060;2022-10-30T01:01:37;19.30;;;11.48;;
53781;SDS011;39692;53.114;7.060;2022-10-30T01:04:06;15.55;;;9.52;;
53781;SDS011;39692;53.114;7.060;2022-10-30T01:06:33;16.40;;;10.52;;
53781;SDS011;39692;53.114;7.060;2022-10-30T01:09:03;12.07;;;8.18;;
53781;SDS011;39692;53.114;7.060;2022-10-30T01:11:29;17.25;;;12.07;;
53781;SDS011;39692;53.114;7.060;2022-10-30T01:14:00;16.73;;;10.63;;
53781;SDS011;39692;53.114;7.060;2022-10-30T01:19:33;17.23;;;9.70;;
53781;SDS011;39692;53.114;7.060;2022-10-30T01:22:18;14.35;;;7.95;;
53781;SDS011;39692;53.114;7.060;2022-10-30T01:27:36;15.13;;;8.25;;
53781;SDS011;39692;53.114;7.060;2022-10-30T01:35:55;18.83;;;10.82;;
53781;SDS011;39692;53.114;7.060;2022-10-30T01:38:38;14.40;;;7.63;;
53781;SDS011;39692;53.114;7.060;2022-10-30T01:41:09;12.10;;;7.65;;
53781;SDS011;39692;53.114;7.060;2022-10-30T01:43:35;17.85;;;9.38;;
53781;SDS011;39692;53.114;7.060;2022-10-30T01:59:25;16.10;;;8.65;;
53781;SDS011;39692;53.114;7.060;2022-10-30T02:02:02;14.57;;;9.18;;
53781;SDS011;39692;53.114;7.060;2022-10-30T02:04:28;14.23;;;8.40;;
53781;SDS011;39692;53.114;7.060;2022-10-30T02:06:54;16.23;;;11.60;;
53781;SDS011;39692;53.114;7.060;2022-10-30T02:09:21;16.52;;;9.85;;
53781;SDS011;39692;53.114;7.060;2022-10-30T02:11:47;13.65;;;10.13;;
53781;SDS011;39692;53.114;7.060;2022-10-30T02:14:14;11.43;;;6.85;;
53781;SDS011;39692;53.114;7.060;2022-10-30T02:16:46;10.63;;;6.82;;
53781;SDS011;39692;53.114;7.060;2022-10-30T02:19:15;17.48;;;8.52;;
53781;SDS011;39692;53.114;7.060;2022-10-30T02:21:41;13.45;;;10.35;;
53781;SDS011;39692;53.114;7.060;2022-10-30T02:24:07;10.80;;;8.02;;
53781;SDS011;39692;53.114;7.060;2022-10-30T02:26:33;15.10;;;8.23;;
53781;SDS011;39692;53.114;7.060;2022-10-30T02:28:58;14.55;;;9.20;;
53781;SDS011;39692;53.114;7.060;2022-10-30T02:31:24;13.65;;;7.55;;
53781;SDS011;39692;53.114;7.060;2022-10-30T02:33:49;17.23;;;7.20;;
53781;SDS011;39692;53.114;7.060;2022-10-30T02:36:15;22.23;;;11.60;;
53781;SDS011;39692;53.114;7.060;2022-10-30T02:38:41;11.68;;;8.35;;
53781;SDS011;39692;53.114;7.060;2022-10-30T02:41:07;18.17;;;10.43;;
53781;SDS011;39692;53.114;7.060;2022-10-30T02:43:34;18.65;;;10.00;;
53781;SDS011;39692;53.114;7.060;2022-10-30T02:45:59;17.40;;;8.48;;
53781;SDS011;39692;53.114;7.060;2022-10-30T02:48:25;15.40;;;8.48;;
53781;SDS011;39692;53.114;7.060;2022-10-30T02:50:51;12.90;;;7.63;;
53781;SDS011;39692;53.114;7.060;2022-10-30T02:53:16;17.42;;;11.85;;
53781;SDS011;39692;53.114;7.060;2022-10-30T02:55:42;13.57;;;8.57;;
53781;SDS011;39692;53.114;7.060;2022-10-30T02:58:07;17.30;;;10.63;;
53781;SDS011;39692;53.114;7.060;2022-10-30T03:00:33;15.05;;;10.70;;
53781;SDS011;39692;53.114;7.060;2022-10-30T03:02:59;19.00;;;10.43;;
53781;SDS011;39692;53.114;7.060;2022-10-30T03:05:24;15.32;;;9.65;;
53781;SDS011;39692;53.114;7.060;2022-10-30T03:07:50;14.73;;;8.63;;
53781;SDS011;39692;53.114;7.060;2022-10-30T03:10:18;15.02;;;9.35;;
53781;SDS011;39692;53.114;7.060;2022-10-30T03:12:43;13.30;;;8.32;;
53781;SDS011;39692;53.114;7.060;2022-10-30T03:15:09;15.02;;;11.60;;
53781;SDS011;39692;53.114;7.060;2022-10-30T03:17:35;17.77;;;10.38;;
53781;SDS011;39692;53.114;7.060;2022-10-30T03:20:00;16.95;;;8.45;;
53781;SDS011;39692;53.114;7.060;2022-10-30T03:22:26;19.85;;;8.13;;
53781;SDS011;39692;53.114;7.060;2022-10-30T03:24:52;15.98;;;9.27;;
53781;SDS011;39692;53.114;7.060;2022-10-30T03:27:17;15.60;;;9.27;;
53781;SDS011;39692;53.114;7.060;2022-10-30T03:29:43;16.45;;;11.93;;
53781;SDS011;39692;53.114;7.060;2022-10-30T03:32:09;17.30;;;8.70;;
53781;SDS011;39692;53.114;7.060;2022-10-30T03:34:35;17.13;;;9.00;;
53781;SDS011;39692;53.114;7.060;2022-10-30T03:37:01;16.48;;;8.32;;
53781;SDS011;39692;53.114;7.060;2022-10-30T03:39:26;20.45;;;11.20;;
53781;SDS011;39692;53.114;7.060;2022-10-30T03:41:52;16.98;;;11.10;;
53781;SDS011;39692;53.114;7.060;2022-10-30T03:44:18;15.65;;;9.77;;
53781;SDS011;39692;53.114;7.060;2022-10-30T03:46:43;16.08;;;9.23;;
53781;SDS011;39692;53.114;7.060;2022-10-30T03:49:09;13.25;;;8.20;;
53781;SDS011;39692;53.114;7.060;2022-10-30T03:51:35;16.30;;;10.52;;
53781;SDS011;39692;53.114;7.060;2022-10-30T03:54:00;19.83;;;8.90;;
53781;SDS011;39692;53.114;7.060;2022-10-30T03:56:26;15.75;;;8.52;;
53781;SDS011;39692;53.114;7.060;2022-10-30T03:58:52;15.05;;;8.48;;
53781;SDS011;39692;53.114;7.060;2022-10-30T04:01:17;19.38;;;9.32;;
53781;SDS011;39692;53.114;7.060;2022-10-30T04:03:43;14.90;;;7.65;;
53781;SDS011;39692;53.114;7.060;2022-10-30T04:06:09;15.13;;;8.73;;
53781;SDS011;39692;53.114;7.060;2022-10-30T04:08:35;14.90;;;8.27;;
53781;SDS011;39692;53.114;7.060;2022-10-30T04:11:01;18.65;;;9.40;;
53781;SDS011;39692;53.114;7.060;2022-10-30T04:13:26;17.02;;;8.60;;
53781;SDS011;39692;53.114;7.060;2022-10-30T04:15:52;18.60;;;8.43;;
53781;SDS011;39692;53.114;7.060;2022-10-30T04:18:18;15.40;;;8.32;;
53781;SDS011;39692;53.114;7.060;2022-10-30T04:20:44;11.73;;;7.72;;
53781;SDS011;39692;53.114;7.060;2022-10-30T04:23:12;15.50;;;8.02;;
53781;SDS011;39692;53.114;7.060;2022-10-30T04:25:42;15.63;;;7.75;;
53781;SDS011;39692;53.114;7.060;2022-10-30T04:28:08;16.85;;;9.13;;
53781;SDS011;39692;53.114;7.060;2022-10-30T04:30:34;16.50;;;7.63;;
53781;SDS011;39692;53.114;7.060;2022-10-30T04:33:01;14.95;;;8.00;;
53781;SDS011;39692;53.114;7.060;2022-10-30T04:35:30;13.00;;;8.15;;
53781;SDS011;39692;53.114;7.060;2022-10-30T04:37:58;16.05;;;12.20;;
53781;SDS011;39692;53.114;7.060;2022-10-30T04:40:26;17.15;;;8.20;;
53781;SDS011;39692;53.114;7.060;2022-10-30T04:42:54;17.92;;;8.35;;
53781;SDS011;39692;53.114;7.060;2022-10-30T04:45:20;16.65;;;8.52;;
53781;SDS011;39692;53.114;7.060;2022-10-30T04:47:46;16.40;;;8.02;;
53781;SDS011;39692;53.114;7.060;2022-10-30T04:50:12;16.85;;;11.18;;
53781;SDS011;39692;53.114;7.060;2022-10-30T04:52:38;19.48;;;8.50;;
53781;SDS011;39692;53.114;7.060;2022-10-30T04:55:05;14.57;;;9.02;;
53781;SDS011;39692;53.114;7.060;2022-10-30T04:57:31;16.40;;;7.65;;
53781;SDS011;39692;53.114;7.060;2022-10-30T04:59:57;17.83;;;10.55;;
53781;SDS011;39692;53.114;7.060;2022-10-30T05:02:23;16.02;;;9.70;;
53781;SDS011;39692;53.114;7.060;2022-10-30T05:04:49;14.18;;;8.05;;
53781;SDS011;39692;53.114;7.060;2022-10-30T05:07:15;18.88;;;9.93;;
53781;SDS011;39692;53.114;7.060;2022-10-30T05:09:42;17.00;;;7.78;;
53781;SDS011;39692;53.114;7.060;2022-10-30T05:12:08;13.43;;;7.57;;
53781;SDS011;39692;53.114;7.060;2022-10-30T05:14:34;14.10;;;8.95;;
53781;SDS011;39692;53.114;7.060;2022-10-30T05:17:00;18.00;;;9.38;;
53781;SDS011;39692;53.114;7.060;2022-10-30T05:19:26;14.60;;;9.23;;
53781;SDS011;39692;53.114;7.060;2022-10-30T05:21:52;19.33;;;8.60;;
53781;SDS011;39692;53.114;7.060;2022-10-30T05:24:18;12.65;;;7.20;;
53781;SDS011;39692;53.114;7.060;2022-10-30T05:26:43;18.27;;;9.48;;
53781;SDS011;39692;53.114;7.060;2022-10-30T05:29:10;13.60;;;7.93;;
53781;SDS011;39692;53.114;7.060;2022-10-30T05:31:35;16.42;;;7.70;;
53781;SDS011;39692;53.114;7.060;2022-10-30T05:34:01;16.27;;;8.07;;
53781;SDS011;39692;53.114;7.060;2022-10-30T05:36:27;19.08;;;8.88;;
53781;SDS011;39692;53.114;7.060;2022-10-30T05:38:53;15.57;;;9.23;;
53781;SDS011;39692;53.114;7.060;2022-10-30T05:41:19;16.02;;;9.45;;
53781;SDS011;39692;53.114;7.060;2022-10-30T05:43:45;19.30;;;7.53;;
53781;SDS011;39692;53.114;7.060;2022-10-30T05:46:10;18.17;;;7.82;;
53781;SDS011;39692;53.114;7.060;2022-10-30T05:48:36;15.77;;;8.88;;
53781;SDS011;39692;53.114;7.060;2022-10-30T05:51:02;16.27;;;8.48;;
53781;SDS011;39692;53.114;7.060;2022-10-30T05:53:28;17.73;;;8.18;;
53781;SDS011;39692;53.114;7.060;2022-10-30T05:55:55;15.05;;;7.80;;
53781;SDS011;39692;53.114;7.060;2022-10-30T05:58:21;17.63;;;7.80;;
53781;SDS011;39692;53.114;7.060;2022-10-30T06:00:47;13.25;;;8.63;;
53781;SDS011;39692;53.114;7.060;2022-10-30T06:03:13;18.25;;;8.73;;
53781;SDS011;39692;53.114;7.060;2022-10-30T06:05:39;16.13;;;7.43;;
53781;SDS011;39692;53.114;7.060;2022-10-30T06:08:06;14.27;;;8.50;;
53781;SDS011;39692;53.114;7.060;2022-10-30T06:10:32;17.00;;;8.32;;
53781;SDS011;39692;53.114;7.060;2022-10-30T06:12:58;16.45;;;10.65;;
53781;SDS011;39692;53.114;7.060;2022-10-30T06:15:26;17.40;;;8.63;;
53781;SDS011;39692;53.114;7.060;2022-10-30T06:17:52;13.65;;;7.55;;
53781;SDS011;39692;53.114;7.060;2022-10-30T06:20:19;19.23;;;9.93;;
53781;SDS011;39692;53.114;7.060;2022-10-30T06:22:53;15.63;;;9.88;;
53781;SDS011;39692;53.114;7.060;2022-10-30T06:25:26;14.52;;;8.00;;
53781;SDS011;39692;53.114;7.060;2022-10-30T06:27:53;13.57;;;8.23;;
53781;SDS011;39692;53.114;7.060;2022-10-30T06:30:19;14.35;;;8.57;;
53781;SDS011;39692;53.114;7.060;2022-10-30T06:32:46;18.65;;;8.45;;
53781;SDS011;39692;53.114;7.060;2022-10-30T06:35:12;13.98;;;8.27;;
53781;SDS011;39692;53.114;7.060;2022-10-30T06:37:43;16.00;;;8.30;;
53781;SDS011;39692;53.114;7.060;2022-10-30T06:40:10;18.83;;;8.80;;
53781;SDS011;39692;53.114;7.060;2022-10-30T06:42:43;18.40;;;8.75;;
53781;SDS011;39692;53.114;7.060;2022-10-30T06:45:09;19.08;;;8.38;;
53781;SDS011;39692;53.114;7.060;2022-10-30T06:47:35;20.58;;;12.35;;
53781;SDS011;39692;53.114;7.060;2022-10-30T06:50:02;14.18;;;8.80;;
53781;SDS011;39692;53.114;7.060;2022-10-30T06:52:28;19.58;;;11.63;;
53781;SDS011;39692;53.114;7.060;2022-10-30T06:54:54;15.98;;;9.90;;
53781;SDS011;39692;53.114;7.060;2022-10-30T06:57:20;13.10;;;8.10;;
53781;SDS011;39692;53.114;7.060;2022-10-30T06:59:45;14.90;;;9.13;;
53781;SDS011;39692;53.114;7.060;2022-10-30T07:02:11;15.98;;;9.85;;
53781;SDS011;39692;53.114;7.060;2022-10-30T07:04:36;22.85;;;12.50;;
53781;SDS011;39692;53.114;7.060;2022-10-30T07:07:02;17.42;;;12.05;;
53781;SDS011;39692;53.114;7.060;2022-10-30T07:09:28;21.83;;;12.23;;
53781;SDS011;39692;53.114;7.060;2022-10-30T07:11:54;17.23;;;11.48;;
53781;SDS011;39692;53.114;7.060;2022-10-30T07:14:24;19.25;;;11.65;;
53781;SDS011;39692;53.114;7.060;2022-10-30T07:16:50;21.85;;;11.35;;
53781;SDS011;39692;53.114;7.060;2022-10-30T07:19:18;16.02;;;11.48;;
53781;SDS011;39692;53.114;7.060;2022-10-30T07:21:43;15.57;;;10.80;;
53781;SDS011;39692;53.114;7.060;2022-10-30T07:24:09;20.77;;;12.35;;
53781;SDS011;39692;53.114;7.060;2022-10-30T07:26:34;16.23;;;11.38;;
53781;SDS011;39692;53.114;7.060;2022-10-30T07:29:02;19.48;;;11.48;;
53781;SDS011;39692;53.114;7.060;2022-10-30T07:31:29;16.45;;;11.27;;
53781;SDS011;39692;53.114;7.060;2022-10-30T07:33:54;16.95;;;11.25;;
53781;SDS011;39692;53.114;7.060;2022-10-30T07:36:20;20.02;;;11.25;;
53781;SDS011;39692;53.114;7.060;2022-10-30T07:38:46;15.07;;;10.95;;
53781;SDS011;39692;53.114;7.060;2022-10-30T07:41:13;19.45;;;10.65;;
53781;SDS011;39692;53.114;7.060;2022-10-30T07:43:38;15.65;;;10.45;;
53781;SDS011;39692;53.114;7.060;2022-10-30T07:46:04;16.65;;;10.45;;
53781;SDS011;39692;53.114;7.060;2022-10-30T07:48:30;18.60;;;11.05;;
53781;SDS011;39692;53.114;7.060;2022-10-30T07:50:55;13.15;;;10.60;;
53781;SDS011;39692;53.114;7.060;2022-10-30T07:53:21;20.33;;;10.52;;
53781;SDS011;39692;53.114;7.060;2022-10-30T07:55:47;17.20;;;10.48;;
53781;SDS011;39692;53.114;7.060;2022-10-30T07:58:13;18.25;;;10.77;;
53781;SDS011;39692;53.114;7.060;2022-10-30T08:00:38;15.85;;;9.75;;
53781;SDS011;39692;53.114;7.060;2022-10-30T08:03:04;15.05;;;9.65;;
53781;SDS011;39692;53.114;7.060;2022-10-30T08:05:30;15.68;;;10.20;;
53781;SDS011;39692;53.114;7.060;2022-10-30T08:07:56;17.70;;;10.45;;
53781;SDS011;39692;53.114;7.060;2022-10-30T08:10:22;15.18;;;10.75;;
53781;SDS011;39692;53.114;7.060;2022-10-30T08:12:48;16.38;;;9.93;;
53781;SDS011;39692;53.114;7.060;2022-10-30T08:15:14;22.60;;;10.35;;
53781;SDS011;39692;53.114;7.060;2022-10-30T08:17:40;15.05;;;10.05;;
53781;SDS011;39692;53.114;7.060;2022-10-30T08:20:07;18.80;;;9.77;;
53781;SDS011;39692;53.114;7.060;2022-10-30T08:22:33;16.85;;;9.75;;
53781;SDS011;39692;53.114;7.060;2022-10-30T08:24:59;14.85;;;10.15;;
53781;SDS011;39692;53.114;7.060;2022-10-30T08:27:24;17.00;;;10.02;;
53781;SDS011;39692;53.114;7.060;2022-10-30T08:29:50;15.02;;;10.63;;
53781;SDS011;39692;53.114;7.060;2022-10-30T08:32:16;12.93;;;9.70;;
53781;SDS011;39692;53.114;7.060;2022-10-30T08:34:41;14.48;;;9.93;;
53781;SDS011;39692;53.114;7.060;2022-10-30T08:37:07;17.27;;;10.40;;
53781;SDS011;39692;53.114;7.060;2022-10-30T08:39:33;14.82;;;10.30;;
53781;SDS011;39692;53.114;7.060;2022-10-30T08:41:58;19.08;;;10.77;;
53781;SDS011;39692;53.114;7.060;2022-10-30T08:44:24;15.05;;;10.55;;
53781;SDS011;39692;53.114;7.060;2022-10-30T08:46:50;14.35;;;10.48;;
53781;SDS011;39692;53.114;7.060;2022-10-30T08:49:16;18.65;;;10.20;;
53781;SDS011;39692;53.114;7.060;2022-10-30T08:51:41;18.20;;;11.20;;
53781;SDS011;39692;53.114;7.060;2022-10-30T08:54:08;15.45;;;10.25;;
53781;SDS011;39692;53.114;7.060;2022-10-30T08:56:34;14.73;;;10.32;;
53781;SDS011;39692;53.114;7.060;2022-10-30T08:59:00;17.88;;;11.70;;
53781;SDS011;39692;53.114;7.060;2022-10-30T09:01:26;15.07;;;11.35;;
53781;SDS011;39692;53.114;7.060;2022-10-30T09:03:52;16.00;;;10.98;;
53781;SDS011;39692;53.114;7.060;2022-10-30T09:06:17;18.25;;;11.55;;
53781;SDS011;39692;53.114;7.060;2022-10-30T09:08:43;15.10;;;10.75;;
53781;SDS011;39692;53.114;7.060;2022-10-30T09:11:10;19.70;;;11.15;;
53781;SDS011;39692;53.114;7.060;2022-10-30T09:13:35;13.80;;;10.52;;
53781;SDS011;39692;53.114;7.060;2022-10-30T09:16:01;19.00;;;10.82;;
53781;SDS011;39692;53.114;7.060;2022-10-30T09:18:28;19.85;;;10.95;;
53781;SDS011;39692;53.114;7.060;2022-10-30T09:20:54;15.27;;;11.07;;
53781;SDS011;39692;53.114;7.060;2022-10-30T09:23:20;21.77;;;11.70;;
53781;SDS011;39692;53.114;7.060;2022-10-30T09:25:45;15.20;;;11.50;;
53781;SDS011;39692;53.114;7.060;2022-10-30T09:28:11;17.70;;;11.52;;
53781;SDS011;39692;53.114;7.060;2022-10-30T09:30:37;16.65;;;11.68;;
53781;SDS011;39692;53.114;7.060;2022-10-30T09:33:02;15.05;;;10.70;;
53781;SDS011;39692;53.114;7.060;2022-10-30T09:35:28;20.05;;;11.38;;
53781;SDS011;39692;53.114;7.060;2022-10-30T09:37:55;18.98;;;11.55;;
53781;SDS011;39692;53.114;7.060;2022-10-30T10:00:55;16.10;;;11.50;;
53781;SDS011;39692;53.114;7.060;2022-10-30T10:03:40;19.42;;;12.30;;
53781;SDS011;39692;53.114;7.060;2022-10-30T10:06:16;20.20;;;12.13;;
53781;SDS011;39692;53.114;7.060;2022-10-30T10:08:49;16.48;;;12.30;;
53781;SDS011;39692;53.114;7.060;2022-10-30T10:11:28;16.20;;;11.45;;
53781;SDS011;39692;53.114;7.060;2022-10-30T10:14:00;17.05;;;12.05;;
53781;SDS011;39692;53.114;7.060;2022-10-30T10:16:39;15.80;;;11.32;;
53781;SDS011;39692;53.114;7.060;2022-10-30T10:19:15;17.42;;;11.68;;
53781;SDS011;39692;53.114;7.060;2022-10-30T10:24:25;16.75;;;12.02;;
53781;SDS011;39692;53.114;7.060;2022-10-30T10:52:23;16.50;;;10.43;;
53781;SDS011;39692;53.114;7.060;2022-10-30T10:54:59;14.73;;;10.32;;
53781;SDS011;39692;53.114;7.060;2022-10-30T10:57:32;19.08;;;11.05;;
53781;SDS011;39692;53.114;7.060;2022-10-30T11:00:04;15.77;;;10.57;;
53781;SDS011;39692;53.114;7.060;2022-10-30T11:03:05;17.63;;;11.63;;
53781;SDS011;39692;53.114;7.060;2022-10-30T11:05:47;18.90;;;10.75;;
53781;SDS011;39692;53.114;7.060;2022-10-30T11:08:32;16.87;;;10.57;;
53781;SDS011;39692;53.114;7.060;2022-10-30T11:11:03;19.15;;;10.73;;
53781;SDS011;39692;53.114;7.060;2022-10-30T11:13:32;14.57;;;9.13;;
53781;SDS011;39692;53.114;7.060;2022-10-30T11:18:58;16.67;;;9.63;;
53781;SDS011;39692;53.114;7.060;2022-10-30T11:21:26;15.35;;;9.88;;
53781;SDS011;39692;53.114;7.060;2022-10-30T11:23:56;12.00;;;9.13;;
53781;SDS011;39692;53.114;7.060;2022-10-30T11:31:20;13.38;;;8.35;;
53781;SDS011;39692;53.114;7.060;2022-10-30T11:33:48;14.35;;;8.70;;
53781;SDS011;39692;53.114;7.060;2022-10-30T11:36:15;14.27;;;8.60;;
53781;SDS011;39692;53.114;7.060;2022-10-30T11:38:42;13.30;;;8.05;;
53781;SDS011;39692;53.114;7.060;2022-10-30T11:41:08;11.35;;;8.60;;
53781;SDS011;39692;53.114;7.060;2022-10-30T11:43:35;14.43;;;8.73;;
53781;SDS011;39692;53.114;7.060;2022-10-30T11:46:02;15.57;;;9.20;;
53781;SDS011;39692;53.114;7.060;2022-10-30T11:48:33;13.05;;;8.82;;
53781;SDS011;39692;53.114;7.060;2022-10-30T11:51:02;11.25;;;8.95;;
53781;SDS011;39692;53.114;7.060;2022-10-30T11:53:31;10.45;;;8.07;;
53781;SDS011;39692;53.114;7.060;2022-10-30T11:56:03;14.95;;;8.70;;
53781;SDS011;39692;53.114;7.060;2022-10-30T11:58:43;14.13;;;8.30;;
53781;SDS011;39692;53.114;7.060;2022-10-30T12:03:58;16.45;;;9.32;;
53781;SDS011;39692;53.114;7.060;2022-10-30T12:06:39;17.00;;;9.20;;
53781;SDS011;39692;53.114;7.060;2022-10-30T12:09:10;15.80;;;7.97;;
53781;SDS011;39692;53.114;7.060;2022-10-30T12:11:44;14.75;;;8.63;;
53781;SDS011;39692;53.114;7.060;2022-10-30T12:14:15;16.00;;;8.82;;
53781;SDS011;39692;53.114;7.060;2022-10-30T12:16:46;15.70;;;8.55;;
53781;SDS011;39692;53.114;7.060;2022-10-30T12:19:14;15.77;;;8.93;;
53781;SDS011;39692;53.114;7.060;2022-10-30T12:21:45;13.68;;;8.25;;
53781;SDS011;39692;53.114;7.060;2022-10-30T12:24:15;14.35;;;8.40;;
53781;SDS011;39692;53.114;7.060;2022-10-30T12:26:53;12.00;;;8.52;;
53781;SDS011;39692;53.114;7.060;2022-10-30T12:29:20;14.38;;;8.88;;
53781;SDS011;39692;53.114;7.060;2022-10-30T12:31:57;16.85;;;8.98;;
53781;SDS011;39692;53.114;7.060;2022-10-30T12:34:32;17.23;;;10.20;;
53781;SDS011;39692;53.114;7.060;2022-10-30T12:39:32;12.80;;;8.73;;
53781;SDS011;39692;53.114;7.060;2022-10-30T12:42:06;12.45;;;9.07;;
53781;SDS011;39692;53.114;7.060;2022-10-30T12:44:41;15.50;;;9.48;;
53781;SDS011;39692;53.114;7.060;2022-10-30T12:49:44;15.20;;;9.45;;
53781;SDS011;39692;53.114;7.060;2022-10-30T12:52:23;17.50;;;9.95;;
53781;SDS011;39692;53.114;7.060;2022-10-30T12:57:51;18.55;;;9.75;;
53781;SDS011;39692;53.114;7.060;2022-10-30T13:00:29;14.80;;;10.32;;
53781;SDS011;39692;53.114;7.060;2022-10-30T13:03:09;19.05;;;10.13;;
53781;SDS011;39692;53.114;7.060;2022-10-30T13:05:52;15.23;;;9.23;;
53781;SDS011;39692;53.114;7.060;2022-10-30T13:14:10;17.65;;;10.35;;
53781;SDS011;39692;53.114;7.060;2022-10-30T13:16:40;18.80;;;10.05;;
53781;SDS011;39692;53.114;7.060;2022-10-30T13:19:07;18.15;;;10.50;;
53781;SDS011;39692;53.114;7.060;2022-10-30T13:32:52;19.38;;;9.63;;
53781;SDS011;39692;53.114;7.060;2022-10-30T13:40:43;15.10;;;9.80;;
53781;SDS011;39692;53.114;7.060;2022-10-30T13:53:57;18.63;;;9.47;;
53781;SDS011;39692;53.114;7.060;2022-10-30T13:56:28;18.90;;;10.75;;
53781;SDS011;39692;53.114;7.060;2022-10-30T13:59:07;16.83;;;10.77;;
53781;SDS011;39692;53.114;7.060;2022-10-30T14:02:00;17.27;;;9.55;;
53781;SDS011;39692;53.114;7.060;2022-10-30T14:05:41;18.38;;;10.32;;
53781;SDS011;39692;53.114;7.060;2022-10-30T14:07:49;17.13;;;10.27;;
53781;SDS011;39692;53.114;7.060;2022-10-30T14:15:53;14.88;;;9.63;;
53781;SDS011;39692;53.114;7.060;2022-10-30T14:18:31;15.23;;;10.13;;
53781;SDS011;39692;53.114;7.060;2022-10-30T14:21:34;16.98;;;11.07;;
53781;SDS011;39692;53.114;7.060;2022-10-30T14:24:02;18.67;;;11.15;;
53781;SDS011;39692;53.114;7.060;2022-10-30T14:26:34;19.88;;;11.27;;
53781;SDS011;39692;53.114;7.060;2022-10-30T14:29:00;16.25;;;10.90;;
53781;SDS011;39692;53.114;7.060;2022-10-30T14:34:45;17.58;;;11.25;;
53781;SDS011;39692;53.114;7.060;2022-10-30T14:37:14;21.42;;;10.68;;
53781;SDS011;39692;53.114;7.060;2022-10-30T14:39:43;19.90;;;10.75;;
53781;SDS011;39692;53.114;7.060;2022-10-30T14:47:54;19.40;;;11.18;;
53781;SDS011;39692;53.114;7.060;2022-10-30T14:58:41;17.58;;;9.75;;
53781;SDS011;39692;53.114;7.060;2022-10-30T15:12:07;16.85;;;9.70;;
53781;SDS011;39692;53.114;7.060;2022-10-30T15:14:59;16.65;;;10.50;;
53781;SDS011;39692;53.114;7.060;2022-10-30T15:19:55;15.95;;;10.18;;
53781;SDS011;39692;53.114;7.060;2022-10-30T15:22:23;18.48;;;9.85;;
53781;SDS011;39692;53.114;7.060;2022-10-30T15:24:51;18.30;;;10.02;;
53781;SDS011;39692;53.114;7.060;2022-10-30T15:27:17;15.50;;;9.88;;
53781;SDS011;39692;53.114;7.060;2022-10-30T15:29:47;14.27;;;9.98;;
53781;SDS011;39692;53.114;7.060;2022-10-30T15:32:18;15.70;;;10.52;;
53781;SDS011;39692;53.114;7.060;2022-10-30T15:34:59;14.65;;;10.45;;
53781;SDS011;39692;53.114;7.060;2022-10-30T15:37:29;18.33;;;10.75;;
53781;SDS011;39692;53.114;7.060;2022-10-30T15:42:50;16.90;;;11.25;;
53781;SDS011;39692;53.114;7.060;2022-10-30T15:45:17;19.10;;;11.52;;
53781;SDS011;39692;53.114;7.060;2022-10-30T15:47:57;15.55;;;11.13;;
53781;SDS011;39692;53.114;7.060;2022-10-30T15:50:27;18.10;;;11.98;;
53781;SDS011;39692;53.114;7.060;2022-10-30T15:52:53;20.48;;;13.88;;
53781;SDS011;39692;53.114;7.060;2022-10-30T15:55:21;19.05;;;12.82;;
53781;SDS011;39692;53.114;7.060;2022-10-30T15:57:54;17.33;;;11.07;;
53781;SDS011;39692;53.114;7.060;2022-10-30T16:00:24;17.63;;;11.23;;
53781;SDS011;39692;53.114;7.060;2022-10-30T16:03:06;18.70;;;11.90;;
53781;SDS011;39692;53.114;7.060;2022-10-30T16:05:41;20.20;;;11.85;;
53781;SDS011;39692;53.114;7.060;2022-10-30T16:08:14;20.33;;;11.77;;
53781;SDS011;39692;53.114;7.060;2022-10-30T16:10:44;17.73;;;12.70;;
53781;SDS011;39692;53.114;7.060;2022-10-30T16:13:14;18.08;;;12.55;;
53781;SDS011;39692;53.114;7.060;2022-10-30T16:15:42;19.42;;;13.98;;
53781;SDS011;39692;53.114;7.060;2022-10-30T16:23:21;18.38;;;12.65;;
53781;SDS011;39692;53.114;7.060;2022-10-30T16:25:52;19.10;;;12.63;;
53781;SDS011;39692;53.114;7.060;2022-10-30T16:30:59;22.08;;;13.15;;
53781;SDS011;39692;53.114;7.060;2022-10-30T16:33:33;23.92;;;14.15;;
53781;SDS011;39692;53.114;7.060;2022-10-30T16:36:03;22.35;;;13.57;;
53781;SDS011;39692;53.114;7.060;2022-10-30T16:38:32;20.15;;;14.07;;
53781;SDS011;39692;53.114;7.060;2022-10-30T16:41:02;21.80;;;13.82;;
53781;SDS011;39692;53.114;7.060;2022-10-30T16:43:37;26.13;;;15.23;;
53781;SDS011;39692;53.114;7.060;2022-10-30T16:48:45;21.02;;;16.20;;
53781;SDS011;39692;53.114;7.060;2022-10-30T16:51:18;15.65;;;12.43;;
53781;SDS011;39692;53.114;7.060;2022-10-30T16:53:45;24.02;;;15.48;;
53781;SDS011;39692;53.114;7.060;2022-10-30T16:58:47;22.42;;;14.27;;
53781;SDS011;39692;53.114;7.060;2022-10-30T17:01:14;23.25;;;16.50;;
53781;SDS011;39692;53.114;7.060;2022-10-30T17:03:40;26.50;;;16.65;;
53781;SDS011;39692;53.114;7.060;2022-10-30T17:06:22;19.85;;;15.75;;
53781;SDS011;39692;53.114;7.060;2022-10-30T17:09:02;23.10;;;14.32;;
53781;SDS011;39692;53.114;7.060;2022-10-30T17:11:33;25.10;;;15.65;;
53781;SDS011;39692;53.114;7.060;2022-10-30T17:14:18;20.13;;;15.27;;
53781;SDS011;39692;53.114;7.060;2022-10-30T17:16:51;24.02;;;15.15;;
53781;SDS011;39692;53.114;7.060;2022-10-30T17:21:57;21.10;;;15.85;;
53781;SDS011;39692;53.114;7.060;2022-10-30T17:24:33;19.80;;;15.02;;
53781;SDS011;39692;53.114;7.060;2022-10-30T17:27:03;20.98;;;16.25;;
53781;SDS011;39692;53.114;7.060;2022-10-30T17:34:46;19.42;;;15.00;;
53781;SDS011;39692;53.114;7.060;2022-10-30T17:37:12;20.02;;;14.23;;
53781;SDS011;39692;53.114;7.060;2022-10-30T17:39:38;23.27;;;15.73;;
53781;SDS011;39692;53.114;7.060;2022-10-30T17:42:04;26.80;;;16.27;;
53781;SDS011;39692;53.114;7.060;2022-10-30T17:44:30;22.55;;;14.00;;